Impacts METAR Board
IDs:

KLGA - New York/La Guardia, NY, US

Updated at: 2200 UTC 02 Oct 2022
Potential Impact None Slight Moderate High
Time 02/10Z 02/11Z 02/12Z 02/13Z 02/14Z 02/15Z 02/16Z 02/17Z 02/18Z 02/19Z 02/20Z 02/21Z 02/22Z
Temp61 62 61 60 59 59 59 57 57 56 54 56 56
Dewpt45 46 48 49 50 49 48 48 47 47 43 39 38
Altim29.97 29.99 30.01 30.03 30.04 30.06 30.08 30.10 30.11 30.11 30.11 30.12 30.13
VIS10 10 10 10 8 7 8 5 7 10 10 10 10
CIG25 29 29 29 24 25 29 27 29 32 35 40 60
CoverOVCBKNBKNBKNOVCOVCOVCOVCOVCOVCOVCOVCOVC
FltCatMVFRMVFRMVFRMVFRMVFRMVFRMVFRMVFRMVFRVFRVFRVFRVFR
WX---------RA-----RA-RA---RA----
WDir50505050405050404040303030
WSpd24 25 26 24 22 26 20 13 16 16 15 18 17
WGst30 34 32 35 33 31 26 24 23 25 24 -- 23
Raw hourly METARs
KLGA 020951Z 05024G30KT 10SM BKN025 OVC040 16/07 A2997 RMK AO2 PK WND 05030/0947 RAB08E40 SLP150 P0000 T01610072
KLGA 021051Z 05025G34KT 10SM BKN029 BKN040 BKN140 BKN230 17/08 A2999 RMK AO2 PK WND 05036/1041 SLP155 T01670078
KLGA 021151Z 05026G32KT 10SM BKN029 BKN038 BKN050 BKN130 OVC230 16/09 A3001 RMK AO2 PK WND 06035/1057 SLP163 60000 70033 T01610089 10167 20156 53010
KLGA 021251Z 05024G35KT 10SM BKN029 BKN035 BKN050 BKN130 OVC230 16/09 A3003 RMK AO2 PK WND 06037/1239 SLP167 T01560094
KLGA 021351Z 04022G33KT 8SM -RA BKN024 BKN050 BKN130 OVC210 15/10 A3004 RMK AO2 PK WND 04036/1257 RAB18 SLP172 P0000 T01500100
KLGA 021451Z 05026G31KT 7SM BKN025 BKN050 BKN120 OVC170 15/09 A3006 RMK AO2 PK WND 05034/1433 RAE15B36E51 SLP178 P0000 60000 T01500094 53015
KLGA 021551Z 05020G26KT 8SM BKN029 BKN050 BKN140 OVC210 15/09 A3008 RMK AO2 PK WND 06030/1458 SLP185 T01500089
KLGA 021651Z 04013G24KT 5SM -RA BKN027 OVC032 14/09 A3010 RMK AO2 PK WND 04031/1607 RAB01 SLP193 P0001 T01390089
KLGA 021751Z 04016G23KT 7SM -RA BKN029 OVC035 14/08 A3011 RMK AO2 PK WND 04026/1655 SLP196 P0001 60002 T01390083 10161 20139 51019
KLGA 021858Z 04016G25KT 10SM FEW027 BKN032 OVC055 13/08 A3011 RMK AO2 T01330083
KLGA 021951Z 03015G24KT 10SM -RA SCT029 BKN035 OVC055 12/06 A3011 RMK AO2 PK WND 04027/1935 RAB02 SLP196 P0003 T01220061
KLGA 022051Z 03018KT 10SM BKN040 OVC055 13/04 A3012 RMK AO2 PK WND 04028/2004 RAE46 SLP200 P0000 60005 T01330039 53004
KLGA 022151Z 03017G23KT 10SM SCT045 BKN060 OVC070 13/03 A3013 RMK AO2 PK WND 04027/2129 SLP203 T01330033



Page loaded:  22:34 UTC  |   03:34 PM Pacific  |   04:34 PM Mountain  |   05:34 PM Central  |   06:34 PM Eastern

 

ADVISORIES

FORECASTS

FORECASTS

OBSERVATIONS

USER TOOLS

ABOUT US